sensor_id;sensor_type;location;lat;lon;timestamp;P1;durP1;ratioP1;P2;durP2;ratioP2
78298;SDS011;67556;55.656;12.590;2023-03-13T00:01:02;11.90;;;7.50;;
78298;SDS011;67556;55.656;12.590;2023-03-13T00:03:38;10.57;;;7.55;;
78298;SDS011;67556;55.656;12.590;2023-03-13T00:06:05;13.23;;;7.95;;
78298;SDS011;67556;55.656;12.590;2023-03-13T00:08:31;10.35;;;7.13;;
78298;SDS011;67556;55.656;12.590;2023-03-13T00:11:00;12.80;;;7.93;;
78298;SDS011;67556;55.656;12.590;2023-03-13T00:13:30;12.68;;;7.72;;
78298;SDS011;67556;55.656;12.590;2023-03-13T00:16:00;13.00;;;7.30;;
78298;SDS011;67556;55.656;12.590;2023-03-13T00:18:26;13.40;;;8.43;;
78298;SDS011;67556;55.656;12.590;2023-03-13T00:20:57;13.68;;;8.07;;
78298;SDS011;67556;55.656;12.590;2023-03-13T00:23:24;13.15;;;8.90;;
78298;SDS011;67556;55.656;12.590;2023-03-13T00:25:54;14.25;;;8.65;;
78298;SDS011;67556;55.656;12.590;2023-03-13T00:28:21;14.68;;;7.97;;
78298;SDS011;67556;55.656;12.590;2023-03-13T00:30:48;17.30;;;9.20;;
78298;SDS011;67556;55.656;12.590;2023-03-13T00:33:14;18.23;;;9.43;;
78298;SDS011;67556;55.656;12.590;2023-03-13T00:35:41;14.85;;;8.88;;
78298;SDS011;67556;55.656;12.590;2023-03-13T00:38:08;15.93;;;8.98;;
78298;SDS011;67556;55.656;12.590;2023-03-13T00:40:35;17.25;;;8.82;;
78298;SDS011;67556;55.656;12.590;2023-03-13T00:43:02;17.55;;;9.23;;
78298;SDS011;67556;55.656;12.590;2023-03-13T00:45:29;17.55;;;10.18;;
78298;SDS011;67556;55.656;12.590;2023-03-13T00:47:56;16.08;;;9.25;;
78298;SDS011;67556;55.656;12.590;2023-03-13T00:50:22;15.77;;;9.60;;
78298;SDS011;67556;55.656;12.590;2023-03-13T00:52:48;14.50;;;8.38;;
78298;SDS011;67556;55.656;12.590;2023-03-13T00:55:16;16.02;;;9.95;;
78298;SDS011;67556;55.656;12.590;2023-03-13T00:57:42;16.42;;;8.65;;
78298;SDS011;67556;55.656;12.590;2023-03-13T01:00:09;15.80;;;10.57;;
78298;SDS011;67556;55.656;12.590;2023-03-13T01:02:40;18.85;;;10.25;;
78298;SDS011;67556;55.656;12.590;2023-03-13T01:05:07;22.85;;;10.48;;
78298;SDS011;67556;55.656;12.590;2023-03-13T01:07:34;20.50;;;10.73;;
78298;SDS011;67556;55.656;12.590;2023-03-13T01:10:02;21.25;;;9.18;;
78298;SDS011;67556;55.656;12.590;2023-03-13T01:12:30;22.13;;;11.40;;
78298;SDS011;67556;55.656;12.590;2023-03-13T01:14:56;16.70;;;9.98;;
78298;SDS011;67556;55.656;12.590;2023-03-13T01:17:22;25.60;;;11.43;;
78298;SDS011;67556;55.656;12.590;2023-03-13T01:19:49;23.85;;;11.68;;
78298;SDS011;67556;55.656;12.590;2023-03-13T01:22:15;22.77;;;12.48;;
78298;SDS011;67556;55.656;12.590;2023-03-13T01:24:42;25.95;;;11.88;;
78298;SDS011;67556;55.656;12.590;2023-03-13T01:27:08;28.38;;;12.82;;
78298;SDS011;67556;55.656;12.590;2023-03-13T01:29:36;26.45;;;11.90;;
78298;SDS011;67556;55.656;12.590;2023-03-13T01:32:03;23.02;;;12.18;;
78298;SDS011;67556;55.656;12.590;2023-03-13T01:34:30;25.17;;;11.68;;
78298;SDS011;67556;55.656;12.590;2023-03-13T01:36:56;25.00;;;11.82;;
78298;SDS011;67556;55.656;12.590;2023-03-13T01:39:23;23.92;;;12.93;;
78298;SDS011;67556;55.656;12.590;2023-03-13T01:41:50;31.02;;;12.68;;
78298;SDS011;67556;55.656;12.590;2023-03-13T01:44:19;27.90;;;12.82;;
78298;SDS011;67556;55.656;12.590;2023-03-13T01:46:48;28.92;;;14.13;;
78298;SDS011;67556;55.656;12.590;2023-03-13T01:49:16;26.17;;;13.18;;
78298;SDS011;67556;55.656;12.590;2023-03-13T01:51:46;33.65;;;13.32;;
78298;SDS011;67556;55.656;12.590;2023-03-13T01:54:15;28.23;;;12.85;;
78298;SDS011;67556;55.656;12.590;2023-03-13T01:56:46;33.95;;;15.27;;
78298;SDS011;67556;55.656;12.590;2023-03-13T01:59:17;38.83;;;15.50;;
78298;SDS011;67556;55.656;12.590;2023-03-13T02:01:46;37.25;;;14.45;;
78298;SDS011;67556;55.656;12.590;2023-03-13T02:04:18;40.33;;;14.55;;
78298;SDS011;67556;55.656;12.590;2023-03-13T02:06:48;40.65;;;15.63;;
78298;SDS011;67556;55.656;12.590;2023-03-13T02:09:20;40.03;;;14.55;;
78298;SDS011;67556;55.656;12.590;2023-03-13T02:11:51;39.38;;;14.85;;
78298;SDS011;67556;55.656;12.590;2023-03-13T02:14:24;46.50;;;15.57;;
78298;SDS011;67556;55.656;12.590;2023-03-13T02:16:55;48.97;;;15.88;;
78298;SDS011;67556;55.656;12.590;2023-03-13T02:19:23;46.60;;;16.48;;
78298;SDS011;67556;55.656;12.590;2023-03-13T02:21:57;48.65;;;15.23;;
78298;SDS011;67556;55.656;12.590;2023-03-13T02:24:31;53.88;;;15.40;;
78298;SDS011;67556;55.656;12.590;2023-03-13T02:27:05;39.15;;;14.60;;
78298;SDS011;67556;55.656;12.590;2023-03-13T02:29:32;42.33;;;16.10;;
78298;SDS011;67556;55.656;12.590;2023-03-13T02:31:59;41.40;;;15.55;;
78298;SDS011;67556;55.656;12.590;2023-03-13T02:34:27;44.58;;;15.40;;
78298;SDS011;67556;55.656;12.590;2023-03-13T02:36:57;44.50;;;14.98;;
78298;SDS011;67556;55.656;12.590;2023-03-13T02:39:25;39.28;;;15.52;;
78298;SDS011;67556;55.656;12.590;2023-03-13T02:41:53;37.85;;;15.68;;
78298;SDS011;67556;55.656;12.590;2023-03-13T02:44:22;37.63;;;14.98;;
78298;SDS011;67556;55.656;12.590;2023-03-13T02:46:50;34.10;;;14.60;;
78298;SDS011;67556;55.656;12.590;2023-03-13T02:49:19;39.70;;;14.25;;
78298;SDS011;67556;55.656;12.590;2023-03-13T02:51:49;39.85;;;14.40;;
78298;SDS011;67556;55.656;12.590;2023-03-13T02:54:18;41.03;;;15.18;;
78298;SDS011;67556;55.656;12.590;2023-03-13T02:56:46;37.90;;;16.10;;
78298;SDS011;67556;55.656;12.590;2023-03-13T02:59:16;41.15;;;16.33;;
78298;SDS011;67556;55.656;12.590;2023-03-13T03:01:44;39.08;;;14.63;;
78298;SDS011;67556;55.656;12.590;2023-03-13T03:04:11;42.67;;;16.45;;
78298;SDS011;67556;55.656;12.590;2023-03-13T03:06:38;38.10;;;14.18;;
78298;SDS011;67556;55.656;12.590;2023-03-13T03:09:04;42.22;;;14.48;;
78298;SDS011;67556;55.656;12.590;2023-03-13T03:11:31;37.22;;;16.23;;
78298;SDS011;67556;55.656;12.590;2023-03-13T03:13:57;37.53;;;14.88;;
78298;SDS011;67556;55.656;12.590;2023-03-13T03:16:23;35.85;;;14.32;;
78298;SDS011;67556;55.656;12.590;2023-03-13T03:18:51;33.60;;;14.13;;
78298;SDS011;67556;55.656;12.590;2023-03-13T03:21:18;40.92;;;15.65;;
78298;SDS011;67556;55.656;12.590;2023-03-13T03:23:45;37.78;;;14.82;;
78298;SDS011;67556;55.656;12.590;2023-03-13T03:26:12;44.03;;;16.05;;
78298;SDS011;67556;55.656;12.590;2023-03-13T03:28:38;34.83;;;15.38;;
78298;SDS011;67556;55.656;12.590;2023-03-13T03:31:05;37.78;;;14.25;;
78298;SDS011;67556;55.656;12.590;2023-03-13T03:33:32;39.80;;;14.25;;
78298;SDS011;67556;55.656;12.590;2023-03-13T03:36:00;40.20;;;15.70;;
78298;SDS011;67556;55.656;12.590;2023-03-13T03:38:28;39.65;;;15.15;;
78298;SDS011;67556;55.656;12.590;2023-03-13T03:40:56;41.47;;;15.48;;
78298;SDS011;67556;55.656;12.590;2023-03-13T03:43:22;37.33;;;15.85;;
78298;SDS011;67556;55.656;12.590;2023-03-13T03:45:49;36.90;;;15.25;;
78298;SDS011;67556;55.656;12.590;2023-03-13T03:48:15;40.97;;;15.77;;
78298;SDS011;67556;55.656;12.590;2023-03-13T03:50:42;47.15;;;15.00;;
78298;SDS011;67556;55.656;12.590;2023-03-13T03:53:10;38.70;;;15.25;;
78298;SDS011;67556;55.656;12.590;2023-03-13T03:55:37;42.72;;;16.23;;
78298;SDS011;67556;55.656;12.590;2023-03-13T03:58:05;44.00;;;16.88;;
78298;SDS011;67556;55.656;12.590;2023-03-13T04:03:07;41.05;;;15.93;;
78298;SDS011;67556;55.656;12.590;2023-03-13T04:05:34;37.30;;;16.85;;
78298;SDS011;67556;55.656;12.590;2023-03-13T04:08:01;38.17;;;14.90;;
78298;SDS011;67556;55.656;12.590;2023-03-13T04:10:29;39.10;;;15.27;;
78298;SDS011;67556;55.656;12.590;2023-03-13T04:12:55;42.00;;;15.75;;
78298;SDS011;67556;55.656;12.590;2023-03-13T04:15:22;34.53;;;14.90;;
78298;SDS011;67556;55.656;12.590;2023-03-13T04:17:48;36.67;;;15.32;;
78298;SDS011;67556;55.656;12.590;2023-03-13T04:20:15;37.10;;;15.20;;
78298;SDS011;67556;55.656;12.590;2023-03-13T04:22:41;34.45;;;16.02;;
78298;SDS011;67556;55.656;12.590;2023-03-13T04:25:09;35.55;;;14.55;;
78298;SDS011;67556;55.656;12.590;2023-03-13T04:27:37;43.30;;;15.40;;
78298;SDS011;67556;55.656;12.590;2023-03-13T04:30:04;37.40;;;13.25;;
78298;SDS011;67556;55.656;12.590;2023-03-13T04:32:33;32.67;;;13.30;;
78298;SDS011;67556;55.656;12.590;2023-03-13T04:34:59;30.75;;;13.80;;
78298;SDS011;67556;55.656;12.590;2023-03-13T04:37:26;35.13;;;13.65;;
78298;SDS011;67556;55.656;12.590;2023-03-13T04:39:52;28.20;;;13.02;;
78298;SDS011;67556;55.656;12.590;2023-03-13T04:42:20;34.33;;;13.60;;
78298;SDS011;67556;55.656;12.590;2023-03-13T04:44:48;32.30;;;13.13;;
78298;SDS011;67556;55.656;12.590;2023-03-13T04:47:15;27.02;;;11.98;;
78298;SDS011;67556;55.656;12.590;2023-03-13T04:49:41;30.02;;;12.00;;
78298;SDS011;67556;55.656;12.590;2023-03-13T04:52:09;26.70;;;11.82;;
78298;SDS011;67556;55.656;12.590;2023-03-13T04:54:35;23.35;;;11.02;;
78298;SDS011;67556;55.656;12.590;2023-03-13T04:57:02;21.80;;;11.20;;
78298;SDS011;67556;55.656;12.590;2023-03-13T04:59:29;26.27;;;10.95;;
78298;SDS011;67556;55.656;12.590;2023-03-13T05:01:57;28.55;;;11.45;;
78298;SDS011;67556;55.656;12.590;2023-03-13T05:04:23;31.95;;;11.98;;
78298;SDS011;67556;55.656;12.590;2023-03-13T05:06:50;31.83;;;12.07;;
78298;SDS011;67556;55.656;12.590;2023-03-13T05:09:16;29.60;;;11.75;;
78298;SDS011;67556;55.656;12.590;2023-03-13T05:11:42;27.77;;;12.05;;
78298;SDS011;67556;55.656;12.590;2023-03-13T05:14:09;30.70;;;11.50;;
78298;SDS011;67556;55.656;12.590;2023-03-13T05:16:35;34.63;;;13.27;;
78298;SDS011;67556;55.656;12.590;2023-03-13T05:19:04;29.75;;;12.63;;
78298;SDS011;67556;55.656;12.590;2023-03-13T05:21:31;28.13;;;13.35;;
78298;SDS011;67556;55.656;12.590;2023-03-13T05:23:58;35.08;;;14.05;;
78298;SDS011;67556;55.656;12.590;2023-03-13T05:26:24;29.40;;;13.38;;
78298;SDS011;67556;55.656;12.590;2023-03-13T05:28:51;30.98;;;14.35;;
78298;SDS011;67556;55.656;12.590;2023-03-13T05:31:17;29.83;;;13.82;;
78298;SDS011;67556;55.656;12.590;2023-03-13T05:33:45;29.13;;;13.32;;
78298;SDS011;67556;55.656;12.590;2023-03-13T05:36:12;31.55;;;15.05;;
78298;SDS011;67556;55.656;12.590;2023-03-13T05:38:40;30.52;;;13.05;;
78298;SDS011;67556;55.656;12.590;2023-03-13T05:41:06;31.77;;;13.50;;
78298;SDS011;67556;55.656;12.590;2023-03-13T05:43:35;29.88;;;13.63;;
78298;SDS011;67556;55.656;12.590;2023-03-13T05:46:03;30.73;;;14.18;;
78298;SDS011;67556;55.656;12.590;2023-03-13T05:48:29;34.30;;;14.48;;
78298;SDS011;67556;55.656;12.590;2023-03-13T05:50:56;31.73;;;14.70;;
78298;SDS011;67556;55.656;12.590;2023-03-13T05:53:24;27.50;;;12.85;;
78298;SDS011;67556;55.656;12.590;2023-03-13T05:55:51;30.38;;;13.35;;
78298;SDS011;67556;55.656;12.590;2023-03-13T05:58:19;28.67;;;12.57;;
78298;SDS011;67556;55.656;12.590;2023-03-13T06:00:45;30.88;;;14.15;;
78298;SDS011;67556;55.656;12.590;2023-03-13T06:03:12;31.52;;;13.38;;
78298;SDS011;67556;55.656;12.590;2023-03-13T06:05:40;32.60;;;14.40;;
78298;SDS011;67556;55.656;12.590;2023-03-13T06:08:06;28.65;;;14.05;;
78298;SDS011;67556;55.656;12.590;2023-03-13T06:10:34;26.80;;;13.57;;
78298;SDS011;67556;55.656;12.590;2023-03-13T06:13:00;27.00;;;14.02;;
78298;SDS011;67556;55.656;12.590;2023-03-13T06:15:27;33.40;;;13.80;;
78298;SDS011;67556;55.656;12.590;2023-03-13T06:17:54;34.83;;;14.20;;
78298;SDS011;67556;55.656;12.590;2023-03-13T06:20:20;30.88;;;13.45;;
78298;SDS011;67556;55.656;12.590;2023-03-13T06:22:47;30.13;;;14.45;;
78298;SDS011;67556;55.656;12.590;2023-03-13T06:25:16;28.45;;;13.15;;
78298;SDS011;67556;55.656;12.590;2023-03-13T06:27:44;24.65;;;12.13;;
78298;SDS011;67556;55.656;12.590;2023-03-13T06:30:11;26.50;;;12.52;;
78298;SDS011;67556;55.656;12.590;2023-03-13T06:32:39;25.85;;;11.75;;
78298;SDS011;67556;55.656;12.590;2023-03-13T06:35:05;25.63;;;11.00;;
78298;SDS011;67556;55.656;12.590;2023-03-13T06:37:32;24.27;;;10.68;;
78298;SDS011;67556;55.656;12.590;2023-03-13T06:39:59;21.67;;;9.65;;
78298;SDS011;67556;55.656;12.590;2023-03-13T06:42:25;22.70;;;11.93;;
78298;SDS011;67556;55.656;12.590;2023-03-13T06:44:53;22.85;;;10.98;;
78298;SDS011;67556;55.656;12.590;2023-03-13T06:47:19;22.33;;;9.82;;
78298;SDS011;67556;55.656;12.590;2023-03-13T06:49:46;25.10;;;10.90;;
78298;SDS011;67556;55.656;12.590;2023-03-13T06:52:14;22.50;;;10.50;;
78298;SDS011;67556;55.656;12.590;2023-03-13T06:54:41;22.23;;;10.48;;
78298;SDS011;67556;55.656;12.590;2023-03-13T06:57:08;18.92;;;9.23;;
78298;SDS011;67556;55.656;12.590;2023-03-13T06:59:35;20.00;;;10.05;;
78298;SDS011;67556;55.656;12.590;2023-03-13T07:02:05;18.55;;;8.90;;
78298;SDS011;67556;55.656;12.590;2023-03-13T07:04:31;17.27;;;8.18;;
78298;SDS011;67556;55.656;12.590;2023-03-13T07:06:58;18.83;;;9.45;;
78298;SDS011;67556;55.656;12.590;2023-03-13T07:09:24;19.55;;;8.93;;
78298;SDS011;67556;55.656;12.590;2023-03-13T07:11:51;16.20;;;8.38;;
78298;SDS011;67556;55.656;12.590;2023-03-13T07:14:18;18.73;;;8.93;;
78298;SDS011;67556;55.656;12.590;2023-03-13T07:16:44;16.15;;;8.60;;
78298;SDS011;67556;55.656;12.590;2023-03-13T07:19:12;15.25;;;9.48;;
78298;SDS011;67556;55.656;12.590;2023-03-13T07:21:39;20.20;;;10.25;;
78298;SDS011;67556;55.656;12.590;2023-03-13T07:24:06;23.02;;;10.48;;
78298;SDS011;67556;55.656;12.590;2023-03-13T07:26:34;22.30;;;10.35;;
78298;SDS011;67556;55.656;12.590;2023-03-13T07:29:00;19.65;;;10.27;;
78298;SDS011;67556;55.656;12.590;2023-03-13T07:31:27;19.77;;;8.65;;
78298;SDS011;67556;55.656;12.590;2023-03-13T07:33:58;19.17;;;9.07;;
78298;SDS011;67556;55.656;12.590;2023-03-13T07:36:26;17.17;;;10.30;;
78298;SDS011;67556;55.656;12.590;2023-03-13T07:38:53;22.98;;;10.27;;
78298;SDS011;67556;55.656;12.590;2023-03-13T07:41:20;15.52;;;9.57;;
78298;SDS011;67556;55.656;12.590;2023-03-13T07:43:47;15.82;;;9.63;;
78298;SDS011;67556;55.656;12.590;2023-03-13T07:46:15;21.40;;;10.23;;
78298;SDS011;67556;55.656;12.590;2023-03-13T07:48:45;17.27;;;8.88;;
78298;SDS011;67556;55.656;12.590;2023-03-13T07:51:13;16.20;;;9.18;;
78298;SDS011;67556;55.656;12.590;2023-03-13T07:53:42;18.25;;;9.63;;
78298;SDS011;67556;55.656;12.590;2023-03-13T07:56:10;19.33;;;9.65;;
78298;SDS011;67556;55.656;12.590;2023-03-13T07:58:39;20.60;;;9.93;;
78298;SDS011;67556;55.656;12.590;2023-03-13T08:01:07;13.65;;;8.98;;
78298;SDS011;67556;55.656;12.590;2023-03-13T08:03:35;15.75;;;9.32;;
78298;SDS011;67556;55.656;12.590;2023-03-13T08:06:04;17.27;;;9.23;;
78298;SDS011;67556;55.656;12.590;2023-03-13T08:08:31;23.90;;;10.40;;
78298;SDS011;67556;55.656;12.590;2023-03-13T08:11:00;15.90;;;9.52;;
78298;SDS011;67556;55.656;12.590;2023-03-13T08:13:27;19.33;;;10.75;;
78298;SDS011;67556;55.656;12.590;2023-03-13T08:16:01;19.73;;;9.63;;
78298;SDS011;67556;55.656;12.590;2023-03-13T08:18:30;16.52;;;8.75;;
78298;SDS011;67556;55.656;12.590;2023-03-13T08:20:59;14.95;;;8.68;;
78298;SDS011;67556;55.656;12.590;2023-03-13T08:23:28;18.67;;;8.80;;
78298;SDS011;67556;55.656;12.590;2023-03-13T08:26:01;15.73;;;8.38;;
78298;SDS011;67556;55.656;12.590;2023-03-13T08:28:29;14.60;;;8.52;;
78298;SDS011;67556;55.656;12.590;2023-03-13T08:30:57;12.38;;;7.82;;
78298;SDS011;67556;55.656;12.590;2023-03-13T08:33:25;15.35;;;8.05;;
78298;SDS011;67556;55.656;12.590;2023-03-13T08:35:53;14.80;;;7.80;;
78298;SDS011;67556;55.656;12.590;2023-03-13T08:38:20;13.48;;;7.25;;
78298;SDS011;67556;55.656;12.590;2023-03-13T08:40:47;16.08;;;7.93;;
78298;SDS011;67556;55.656;12.590;2023-03-13T08:43:16;14.50;;;7.55;;
78298;SDS011;67556;55.656;12.590;2023-03-13T08:45:43;11.55;;;6.78;;
78298;SDS011;67556;55.656;12.590;2023-03-13T08:48:09;14.02;;;7.10;;
78298;SDS011;67556;55.656;12.590;2023-03-13T08:50:35;12.95;;;7.47;;
78298;SDS011;67556;55.656;12.590;2023-03-13T08:53:02;13.07;;;7.20;;
78298;SDS011;67556;55.656;12.590;2023-03-13T08:55:28;15.45;;;7.57;;
78298;SDS011;67556;55.656;12.590;2023-03-13T08:57:54;12.95;;;6.65;;
78298;SDS011;67556;55.656;12.590;2023-03-13T09:00:41;14.02;;;6.35;;
78298;SDS011;67556;55.656;12.590;2023-03-13T09:03:07;13.80;;;6.53;;
78298;SDS011;67556;55.656;12.590;2023-03-13T09:05:46;10.43;;;6.07;;
78298;SDS011;67556;55.656;12.590;2023-03-13T09:08:31;12.00;;;6.30;;
78298;SDS011;67556;55.656;12.590;2023-03-13T09:10:58;11.55;;;6.50;;
78298;SDS011;67556;55.656;12.590;2023-03-13T09:13:43;11.75;;;6.30;;
78298;SDS011;67556;55.656;12.590;2023-03-13T09:16:17;9.60;;;5.80;;
78298;SDS011;67556;55.656;12.590;2023-03-13T09:18:45;14.98;;;6.20;;
78298;SDS011;67556;55.656;12.590;2023-03-13T09:21:12;10.50;;;5.57;;
78298;SDS011;67556;55.656;12.590;2023-03-13T09:23:42;11.65;;;5.65;;
78298;SDS011;67556;55.656;12.590;2023-03-13T09:26:11;7.55;;;4.80;;
78298;SDS011;67556;55.656;12.590;2023-03-13T09:28:39;10.98;;;5.53;;
78298;SDS011;67556;55.656;12.590;2023-03-13T09:31:08;8.75;;;5.22;;
78298;SDS011;67556;55.656;12.590;2023-03-13T09:33:37;6.68;;;4.72;;
78298;SDS011;67556;55.656;12.590;2023-03-13T09:36:06;6.55;;;4.35;;
78298;SDS011;67556;55.656;12.590;2023-03-13T09:38:40;6.68;;;4.10;;
78298;SDS011;67556;55.656;12.590;2023-03-13T09:41:25;7.38;;;4.40;;
78298;SDS011;67556;55.656;12.590;2023-03-13T09:46:47;6.10;;;3.13;;
78298;SDS011;67556;55.656;12.590;2023-03-13T09:49:32;6.68;;;4.05;;
78298;SDS011;67556;55.656;12.590;2023-03-13T09:52:08;5.93;;;3.60;;
78298;SDS011;67556;55.656;12.590;2023-03-13T09:54:47;8.50;;;3.30;;
78298;SDS011;67556;55.656;12.590;2023-03-13T09:57:19;5.68;;;3.78;;
78298;SDS011;67556;55.656;12.590;2023-03-13T10:00:10;6.30;;;3.33;;
78298;SDS011;67556;55.656;12.590;2023-03-13T10:02:59;6.35;;;3.55;;
78298;SDS011;67556;55.656;12.590;2023-03-13T10:05:34;4.43;;;2.90;;
78298;SDS011;67556;55.656;12.590;2023-03-13T10:08:07;7.05;;;3.50;;
78298;SDS011;67556;55.656;12.590;2023-03-13T10:10:51;6.07;;;3.17;;
78298;SDS011;67556;55.656;12.590;2023-03-13T10:13:24;4.68;;;3.03;;
78298;SDS011;67556;55.656;12.590;2023-03-13T10:15:55;8.18;;;3.40;;
78298;SDS011;67556;55.656;12.590;2023-03-13T10:18:26;8.43;;;3.42;;
78298;SDS011;67556;55.656;12.590;2023-03-13T10:20:55;9.90;;;3.95;;
78298;SDS011;67556;55.656;12.590;2023-03-13T10:23:38;5.93;;;3.38;;
78298;SDS011;67556;55.656;12.590;2023-03-13T10:26:10;5.35;;;3.33;;
78298;SDS011;67556;55.656;12.590;2023-03-13T10:28:43;3.90;;;3.05;;
78298;SDS011;67556;55.656;12.590;2023-03-13T10:31:10;5.80;;;3.78;;
78298;SDS011;67556;55.656;12.590;2023-03-13T10:33:44;5.40;;;3.22;;
78298;SDS011;67556;55.656;12.590;2023-03-13T10:36:12;8.18;;;3.75;;
78298;SDS011;67556;55.656;12.590;2023-03-13T10:38:46;5.05;;;2.92;;
78298;SDS011;67556;55.656;12.590;2023-03-13T10:41:18;5.03;;;3.08;;
78298;SDS011;67556;55.656;12.590;2023-03-13T10:43:49;4.47;;;3.30;;
78298;SDS011;67556;55.656;12.590;2023-03-13T10:46:23;5.00;;;3.63;;
78298;SDS011;67556;55.656;12.590;2023-03-13T10:48:52;4.97;;;3.03;;
78298;SDS011;67556;55.656;12.590;2023-03-13T10:51:21;7.00;;;3.13;;
78298;SDS011;67556;55.656;12.590;2023-03-13T10:53:48;7.07;;;3.65;;
78298;SDS011;67556;55.656;12.590;2023-03-13T10:56:19;6.03;;;3.38;;
78298;SDS011;67556;55.656;12.590;2023-03-13T10:58:51;5.85;;;2.92;;
78298;SDS011;67556;55.656;12.590;2023-03-13T11:01:20;7.28;;;3.28;;
78298;SDS011;67556;55.656;12.590;2023-03-13T11:03:48;4.05;;;2.90;;
78298;SDS011;67556;55.656;12.590;2023-03-13T11:06:24;6.28;;;3.20;;
78298;SDS011;67556;55.656;12.590;2023-03-13T11:08:59;4.07;;;2.90;;
78298;SDS011;67556;55.656;12.590;2023-03-13T11:11:29;4.40;;;2.80;;
78298;SDS011;67556;55.656;12.590;2023-03-13T11:14:06;6.55;;;3.03;;
78298;SDS011;67556;55.656;12.590;2023-03-13T11:16:34;3.42;;;2.40;;
78298;SDS011;67556;55.656;12.590;2023-03-13T11:19:09;4.55;;;3.60;;
78298;SDS011;67556;55.656;12.590;2023-03-13T11:21:54;4.80;;;2.83;;
78298;SDS011;67556;55.656;12.590;2023-03-13T11:24:30;3.85;;;2.50;;
78298;SDS011;67556;55.656;12.590;2023-03-13T11:27:06;4.35;;;2.40;;
78298;SDS011;67556;55.656;12.590;2023-03-13T11:29:46;5.03;;;2.80;;
78298;SDS011;67556;55.656;12.590;2023-03-13T11:32:21;3.60;;;2.55;;
78298;SDS011;67556;55.656;12.590;2023-03-13T11:34:53;3.50;;;2.70;;
78298;SDS011;67556;55.656;12.590;2023-03-13T11:37:24;4.20;;;2.67;;
78298;SDS011;67556;55.656;12.590;2023-03-13T11:39:54;3.47;;;2.42;;
78298;SDS011;67556;55.656;12.590;2023-03-13T11:42:36;3.70;;;2.38;;
78298;SDS011;67556;55.656;12.590;2023-03-13T11:45:26;3.13;;;2.83;;
78298;SDS011;67556;55.656;12.590;2023-03-13T11:48:03;3.25;;;2.50;;
78298;SDS011;67556;55.656;12.590;2023-03-13T11:50:43;3.95;;;2.80;;
78298;SDS011;67556;55.656;12.590;2023-03-13T11:53:20;2.60;;;2.20;;
78298;SDS011;67556;55.656;12.590;2023-03-13T11:55:55;3.60;;;2.63;;
78298;SDS011;67556;55.656;12.590;2023-03-13T11:58:31;2.75;;;2.50;;
78298;SDS011;67556;55.656;12.590;2023-03-13T12:03:35;2.72;;;2.28;;
78298;SDS011;67556;55.656;12.590;2023-03-13T12:06:10;4.20;;;2.30;;
78298;SDS011;67556;55.656;12.590;2023-03-13T12:08:49;2.53;;;2.00;;
78298;SDS011;67556;55.656;12.590;2023-03-13T12:11:21;4.05;;;2.00;;
78298;SDS011;67556;55.656;12.590;2023-03-13T12:13:53;3.45;;;2.25;;
78298;SDS011;67556;55.656;12.590;2023-03-13T12:16:27;3.72;;;2.10;;
78298;SDS011;67556;55.656;12.590;2023-03-13T12:19:03;3.55;;;2.00;;
78298;SDS011;67556;55.656;12.590;2023-03-13T12:21:31;2.90;;;1.92;;
78298;SDS011;67556;55.656;12.590;2023-03-13T12:24:05;3.95;;;2.35;;
78298;SDS011;67556;55.656;12.590;2023-03-13T12:26:39;3.40;;;2.05;;
78298;SDS011;67556;55.656;12.590;2023-03-13T12:29:11;5.53;;;2.72;;
78298;SDS011;67556;55.656;12.590;2023-03-13T12:31:42;5.22;;;2.78;;
78298;SDS011;67556;55.656;12.590;2023-03-13T12:34:14;4.60;;;3.17;;
78298;SDS011;67556;55.656;12.590;2023-03-13T12:36:45;5.13;;;3.10;;
78298;SDS011;67556;55.656;12.590;2023-03-13T12:41:53;8.52;;;3.88;;
78298;SDS011;67556;55.656;12.590;2023-03-13T12:44:34;9.48;;;4.32;;
78298;SDS011;67556;55.656;12.590;2023-03-13T12:47:06;11.27;;;4.40;;
78298;SDS011;67556;55.656;12.590;2023-03-13T12:49:42;7.60;;;3.53;;
78298;SDS011;67556;55.656;12.590;2023-03-13T12:52:29;8.52;;;4.03;;
78298;SDS011;67556;55.656;12.590;2023-03-13T12:55:19;9.48;;;4.10;;
78298;SDS011;67556;55.656;12.590;2023-03-13T12:58:00;7.93;;;3.70;;
78298;SDS011;67556;55.656;12.590;2023-03-13T13:00:36;9.77;;;3.72;;
78298;SDS011;67556;55.656;12.590;2023-03-13T13:03:08;9.13;;;4.13;;
78298;SDS011;67556;55.656;12.590;2023-03-13T13:05:56;9.05;;;4.18;;
78298;SDS011;67556;55.656;12.590;2023-03-13T13:08:25;7.93;;;3.75;;
78298;SDS011;67556;55.656;12.590;2023-03-13T13:10:53;13.55;;;4.90;;
78298;SDS011;67556;55.656;12.590;2023-03-13T13:13:27;11.93;;;4.18;;
78298;SDS011;67556;55.656;12.590;2023-03-13T13:15:58;10.63;;;3.83;;
78298;SDS011;67556;55.656;12.590;2023-03-13T13:18:27;14.40;;;3.80;;
78298;SDS011;67556;55.656;12.590;2023-03-13T13:23:48;9.80;;;3.42;;
78298;SDS011;67556;55.656;12.590;2023-03-13T13:32:18;10.73;;;3.88;;
78298;SDS011;67556;55.656;12.590;2023-03-13T13:34:59;10.07;;;4.32;;
78298;SDS011;67556;55.656;12.590;2023-03-13T13:37:30;10.30;;;3.55;;
78298;SDS011;67556;55.656;12.590;2023-03-13T13:40:16;8.25;;;3.05;;
78298;SDS011;67556;55.656;12.590;2023-03-13T13:42:48;12.05;;;3.63;;
78298;SDS011;67556;55.656;12.590;2023-03-13T13:48:14;8.45;;;3.63;;
78298;SDS011;67556;55.656;12.590;2023-03-13T13:53:48;11.38;;;4.00;;
78298;SDS011;67556;55.656;12.590;2023-03-13T13:56:31;7.25;;;3.50;;
78298;SDS011;67556;55.656;12.590;2023-03-13T13:59:20;8.73;;;3.92;;
78298;SDS011;67556;55.656;12.590;2023-03-13T14:02:08;9.07;;;3.35;;
78298;SDS011;67556;55.656;12.590;2023-03-13T14:04:41;10.05;;;3.08;;
78298;SDS011;67556;55.656;12.590;2023-03-13T14:07:14;7.60;;;3.05;;
78298;SDS011;67556;55.656;12.590;2023-03-13T14:09:45;8.57;;;3.30;;
78298;SDS011;67556;55.656;12.590;2023-03-13T14:12:23;6.10;;;2.80;;
78298;SDS011;67556;55.656;12.590;2023-03-13T14:15:06;8.10;;;3.33;;
78298;SDS011;67556;55.656;12.590;2023-03-13T14:17:37;12.63;;;2.92;;
78298;SDS011;67556;55.656;12.590;2023-03-13T14:20:05;7.07;;;2.85;;
78298;SDS011;67556;55.656;12.590;2023-03-13T14:22:43;10.57;;;3.40;;
78298;SDS011;67556;55.656;12.590;2023-03-13T14:25:10;8.73;;;3.25;;
78298;SDS011;67556;55.656;12.590;2023-03-13T14:27:41;9.88;;;3.40;;
78298;SDS011;67556;55.656;12.590;2023-03-13T14:30:13;11.38;;;2.90;;
78298;SDS011;67556;55.656;12.590;2023-03-13T14:32:42;9.48;;;3.22;;
78298;SDS011;67556;55.656;12.590;2023-03-13T14:35:11;9.38;;;3.53;;
78298;SDS011;67556;55.656;12.590;2023-03-13T14:37:46;10.88;;;3.38;;
78298;SDS011;67556;55.656;12.590;2023-03-13T14:40:18;12.65;;;3.25;;
78298;SDS011;67556;55.656;12.590;2023-03-13T14:42:55;10.80;;;3.25;;
78298;SDS011;67556;55.656;12.590;2023-03-13T14:45:26;9.73;;;3.25;;
78298;SDS011;67556;55.656;12.590;2023-03-13T14:47:54;7.43;;;3.00;;
78298;SDS011;67556;55.656;12.590;2023-03-13T14:50:27;10.07;;;3.20;;
78298;SDS011;67556;55.656;12.590;2023-03-13T14:52:54;12.43;;;3.20;;
78298;SDS011;67556;55.656;12.590;2023-03-13T14:55:27;10.23;;;3.20;;
78298;SDS011;67556;55.656;12.590;2023-03-13T14:57:58;13.10;;;3.70;;
78298;SDS011;67556;55.656;12.590;2023-03-13T15:00:42;11.27;;;3.28;;